CheckWX is a tool to help pilots better visualize weather data.  It is not intended as a substitute for an official pre-flight weather briefing.

09:31:00 UTC

KFCH METAR
Fresno Chandler Executive Airport
Fresno, California, USA
Current

16 mins ago

KFCH 200915Z AUTO 09003KT 10SM FEW039 FEW046 03/02 A3010 RMK A01
Observed
Feb-20 @ 09:15 UTC
Wind
  • 090° at 3 KTS
Visibility
16,093 meters
Flight Rules
VFR
Cloud Levels
  • Few at 3,900' AGL
  • Few at 4,600' AGL
Temperature
C / 37°F
Dewpoint
C / 36°F
Humidity
93%
Altimeter
30.1" Hg
Pressure
1019.32 hPa
Previous

36 mins ago

KFCH 200855Z AUTO 00000KT 10SM CLR 04/02 A3012 RMK A01
Observed
Feb-20 @ 08:55 UTC
Visibility
16,093 meters
Flight Rules
VFR
Cloud Levels
  • Clear skies
Temperature
C / 39°F
Dewpoint
C / 36°F
Humidity
87%
Altimeter
30.12" Hg
Pressure
1020.02 hPa
Previous

56 mins ago

KFCH 200835Z AUTO 00000KT 10SM CLR 04/03 A3012 RMK A01
Observed
Feb-20 @ 08:35 UTC
Visibility
16,093 meters
Flight Rules
VFR
Cloud Levels
  • Clear skies
Temperature
C / 39°F
Dewpoint
C / 37°F
Humidity
93%
Altimeter
30.12" Hg
Pressure
1020.02 hPa